Time;durP1;ratioP1;P1;durP2;ratioP2;P2;SDS_P1;SDS_P2;PMS_P1;PMS_P2;Temp;Humidity;BMP_temperature;BMP_pressure;BME280_temperature;BME280_humidity;BME280_pressure;Samples;Min_cycle;Max_cycle;Signal;HPM_P1;HPM_P2
2023/08/24 00:01:50;;;;;;;;;;;;;;;25.21;54.69;101089.97;4147627;28;19969;-59
2023/08/24 00:03:51;;;;;;;;;;;;;;;25.21;54.71;101095.34;4147288;28;19973;-59
2023/08/24 00:05:53;;;;;;;;;;;;;;;25.20;54.73;101094.50;4147531;28;20135;-60
2023/08/24 00:07:54;;;;;;;;;;;;;;;25.19;54.70;101090.13;4146705;28;19925;-61
2023/08/24 00:09:56;;;;;;;;;;;;;;;25.22;54.53;101096.22;4147597;28;20311;-59
2023/08/24 00:11:57;;;;;;;;;;;;;;;25.21;54.89;101095.34;4147297;28;19925;-58
2023/08/24 00:13:59;;;;;;;;;;;;;;;25.19;54.76;101095.50;4147318;28;19988;-59
2023/08/24 00:16:01;;;;;;;;;;;;;;;25.18;55.21;101087.56;4146068;28;19933;-59
2023/08/24 00:18:02;;;;;;;;;;;;;;;25.18;55.23;101076.81;4146270;28;19929;-59
2023/08/24 00:20:10;;;;;;;;;;;;;;;25.18;55.42;101082.19;4147202;28;20233;-59
2023/08/24 00:22:12;;;;;;;;;;;;;;;25.16;55.22;101073.41;4147499;28;19980;-58
2023/08/24 00:24:14;;;;;;;;;;;;;;;25.16;55.38;101078.78;4147505;28;19929;-57
2023/08/24 00:26:16;;;;;;;;;;;;;;;25.15;55.04;101077.94;4147439;28;19969;-59
2023/08/24 00:28:18;;;;;;;;;;;;;;;25.15;55.53;101082.47;4146242;28;19929;-59
2023/08/24 00:30:20;;;;;;;;;;;;;;;25.15;55.47;101080.63;4147493;28;19929;-59
2023/08/24 00:32:22;;;;;;;;;;;;;;;25.14;55.49;101080.75;4147198;28;20396;-59
2023/08/24 00:34:24;;;;;;;;;;;;;;;25.13;55.74;101077.22;4147044;28;19971;-58
2023/08/24 00:36:25;;;;;;;;;;;;;;;25.13;55.23;101085.31;4147361;28;19932;-57
2023/08/24 00:38:27;;;;;;;;;;;;;;;25.13;55.36;101090.69;4146294;28;19925;-58
2023/08/24 00:40:28;;;;;;;;;;;;;;;25.13;55.74;101084.44;4147384;28;19947;-59
2023/08/24 00:42:31;;;;;;;;;;;;;;;25.12;55.06;101085.44;4147863;28;19937;-59
2023/08/24 00:44:33;;;;;;;;;;;;;;;25.10;54.84;101088.25;4150617;28;19947;-59
2023/08/24 00:46:35;;;;;;;;;;;;;;;25.11;55.22;101084.59;4150473;28;20008;-59
2023/08/24 00:48:36;;;;;;;;;;;;;;;25.10;55.76;101087.41;4149010;28;19926;-59
2023/08/24 00:50:38;;;;;;;;;;;;;;;25.10;55.01;101088.25;4150351;28;19932;-59
2023/08/24 00:52:40;;;;;;;;;;;;;;;25.09;55.51;101091.09;4150277;28;19929;-58
2023/08/24 00:54:42;;;;;;;;;;;;;;;25.02;55.53;101072.00;4150402;28;20387;-58
2023/08/24 00:56:43;;;;;;;;;;;;;;;25.09;55.71;101088.41;4150355;28;20019;-58
2023/08/24 00:58:47;;;;;;;;;;;;;;;25.07;55.43;101085.88;4149350;28;20462;-58
2023/08/24 01:00:53;;;;;;;;;;;;;;;25.06;55.93;101086.03;4150341;28;19925;-58
2023/08/24 01:02:55;;;;;;;;;;;;;;;25.04;55.92;101080.75;4150115;28;20417;-58
2023/08/24 01:04:58;;;;;;;;;;;;;;;25.05;55.73;101087.84;4150259;28;19933;-58
2023/08/24 01:06:59;;;;;;;;;;;;;;;25.03;55.68;101088.00;4150095;28;19960;-58
2023/08/24 01:09:01;;;;;;;;;;;;;;;25.02;55.81;101085.44;4149284;28;19936;-58
2023/08/24 01:11:08;;;;;;;;;;;;;;;25.01;55.82;101079.19;4149982;28;20008;-58
2023/08/24 01:13:11;;;;;;;;;;;;;;;25.01;55.82;101083.75;4149928;28;19934;-58
2023/08/24 01:15:17;;;;;;;;;;;;;;;25.00;55.79;101080.19;4150162;28;19925;-58
2023/08/24 01:17:22;;;;;;;;;;;;;;;25.00;55.63;101076.66;4149155;28;19926;-58
2023/08/24 01:19:36;;;;;;;;;;;;;;;24.99;55.29;101083.84;4149805;28;19991;-59
2023/08/24 01:21:37;;;;;;;;;;;;;;;24.98;55.41;101076.81;4148846;28;20037;-58
2023/08/24 01:23:53;;;;;;;;;;;;;;;25.00;55.71;101082.88;4150055;28;19932;-58
2023/08/24 01:26:11;;;;;;;;;;;;;;;25.00;55.58;101076.66;4148592;28;19964;-59
2023/08/24 01:28:13;;;;;;;;;;;;;;;24.99;55.60;101074.94;4148766;28;19926;-59
2023/08/24 01:30:15;;;;;;;;;;;;;;;24.98;55.43;101073.25;4149856;28;19925;-58
2023/08/24 01:32:17;;;;;;;;;;;;;;;24.96;55.17;101064.44;4149648;28;19925;-59
2023/08/24 01:34:19;;;;;;;;;;;;;;;24.96;55.56;101069.84;4149895;28;20314;-59
2023/08/24 01:36:20;;;;;;;;;;;;;;;24.95;55.42;101062.78;4149831;28;19929;-58
2023/08/24 01:38:22;;;;;;;;;;;;;;;24.95;55.62;101063.63;4148634;28;20318;-59
2023/08/24 01:40:27;;;;;;;;;;;;;;;24.95;55.74;101060.09;4149888;28;20041;-59
2023/08/24 01:42:31;;;;;;;;;;;;;;;24.94;55.64;101061.06;4149730;28;19926;-59
2023/08/24 01:44:35;;;;;;;;;;;;;;;24.94;55.61;101059.22;4149823;28;19960;-59
2023/08/24 01:46:37;;;;;;;;;;;;;;;24.94;55.35;101051.16;4149208;28;19925;-59
2023/08/24 01:48:39;;;;;;;;;;;;;;;24.93;55.47;101051.31;4148511;28;19980;-58
2023/08/24 01:50:42;;;;;;;;;;;;;;;24.92;55.35;101049.59;4149832;28;19957;-58
2023/08/24 01:52:44;;;;;;;;;;;;;;;24.92;55.27;101044.22;4149479;28;19925;-59
2023/08/24 01:54:47;;;;;;;;;;;;;;;24.91;55.27;101043.38;4149000;28;20521;-59
2023/08/24 01:56:48;;;;;;;;;;;;;;;24.90;55.66;101041.66;4149595;28;19926;-58
2023/08/24 01:58:50;;;;;;;;;;;;;;;24.89;56.08;101031.91;4148486;28;19929;-59
2023/08/24 02:00:52;;;;;;;;;;;;;;;24.87;55.43;101037.44;4149120;28;19995;-57
2023/08/24 02:02:53;;;;;;;;;;;;;;;24.87;55.49;101036.56;4149547;28;20020;-59
2023/08/24 02:04:55;;;;;;;;;;;;;;;24.89;55.40;101045.34;4149469;28;20383;-59
2023/08/24 02:06:57;;;;;;;;;;;;;;;24.86;55.44;101038.41;4149167;28;20016;-59
2023/08/24 02:08:58;;;;;;;;;;;;;;;24.86;55.29;101038.41;4148523;28;20027;-59
2023/08/24 02:10:59;;;;;;;;;;;;;;;24.85;55.24;101036.69;4149206;28;19986;-59
2023/08/24 02:13:01;;;;;;;;;;;;;;;24.85;55.61;101030.50;4149287;28;19929;-58
2023/08/24 02:15:03;;;;;;;;;;;;;;;24.84;55.46;101036.84;4149047;28;20028;-59
2023/08/24 02:17:04;;;;;;;;;;;;;;;24.82;55.62;101026.22;4149479;28;19995;-59
2023/08/24 02:19:06;;;;;;;;;;;;;;;24.82;55.97;101033.44;4148100;28;20474;-59
2023/08/24 02:21:08;;;;;;;;;;;;;;;24.82;55.62;101030.75;4149120;28;19925;-59
2023/08/24 02:23:10;;;;;;;;;;;;;;;24.81;55.64;101024.53;4149125;28;20354;-59
2023/08/24 02:25:11;;;;;;;;;;;;;;;24.79;55.76;101021.13;4149008;28;20044;-59
2023/08/24 02:27:13;;;;;;;;;;;;;;;24.80;55.54;101021.97;4149069;28;20012;-59
2023/08/24 02:29:15;;;;;;;;;;;;;;;24.79;55.39;101020.25;4147717;28;20375;-59
2023/08/24 02:31:16;;;;;;;;;;;;;;;24.78;55.50;101008.66;4149085;28;20029;-59
2023/08/24 02:33:18;;;;;;;;;;;;;;;24.79;55.48;101013.06;4148830;28;19949;-59
2023/08/24 02:35:19;;;;;;;;;;;;;;;24.79;55.67;101005.00;4148941;28;19929;-59
2023/08/24 02:37:21;;;;;;;;;;;;;;;24.77;55.53;100998.88;4149059;28;19976;-59
2023/08/24 02:39:22;;;;;;;;;;;;;;;24.77;55.57;100998.06;4147944;28;19925;-59
2023/08/24 02:41:24;;;;;;;;;;;;;;;24.76;55.50;100993.66;4149041;28;20395;-59
2023/08/24 02:43:26;;;;;;;;;;;;;;;24.76;55.43;100989.13;4148389;28;20368;-59
2023/08/24 02:45:27;;;;;;;;;;;;;;;24.75;55.48;100982.03;4148618;28;20020;-59
2023/08/24 02:47:28;;;;;;;;;;;;;;;24.74;55.63;100990.25;4148592;28;19926;-60
2023/08/24 02:49:30;;;;;;;;;;;;;;;24.73;55.87;100989.41;4147714;28;19957;-59
2023/08/24 02:51:32;;;;;;;;;;;;;;;24.74;55.80;100979.50;4148679;28;19929;-59
2023/08/24 02:53:33;;;;;;;;;;;;;;;24.71;55.63;100978.78;4148740;28;20016;-59
2023/08/24 02:55:35;;;;;;;;;;;;;;;24.72;55.59;100975.09;4148544;28;19926;-59
2023/08/24 02:57:36;;;;;;;;;;;;;;;24.72;55.46;100966.19;4147835;28;19932;-59
2023/08/24 02:59:39;;;;;;;;;;;;;;;24.72;55.65;100971.56;4148520;28;19926;-59
2023/08/24 03:01:41;;;;;;;;;;;;;;;24.72;55.60;100960.81;4148328;28;19966;-59
2023/08/24 03:03:42;;;;;;;;;;;;;;;24.71;55.42;100967.19;4148349;28;20024;-59
2023/08/24 03:05:53;;;;;;;;;;;;;;;24.71;55.55;100961.81;4147465;28;20099;-59
2023/08/24 03:07:55;;;;;;;;;;;;;;;24.71;55.40;100961.81;4147788;28;19929;-59
2023/08/24 03:09:56;;;;;;;;;;;;;;;24.70;55.75;100958.28;4148115;28;20019;-59
2023/08/24 03:11:58;;;;;;;;;;;;;;;24.70;55.91;100955.59;4148227;28;19932;-59
2023/08/24 03:13:59;;;;;;;;;;;;;;;24.69;55.97;100948.50;4148441;28;19925;-59
2023/08/24 03:16:04;;;;;;;;;;;;;;;24.68;55.64;100946.81;4148080;28;20425;-59
2023/08/24 03:18:06;;;;;;;;;;;;;;;24.68;55.58;100944.09;4147301;28;19925;-59
2023/08/24 03:20:08;;;;;;;;;;;;;;;24.69;55.61;100944.94;4148118;28;19945;-59
2023/08/24 03:22:10;;;;;;;;;;;;;;;24.68;55.54;100948.63;4148206;28;20036;-59
2023/08/24 03:24:11;;;;;;;;;;;;;;;24.67;55.53;100945.09;4147899;28;19932;-59
2023/08/24 03:26:13;;;;;;;;;;;;;;;24.67;55.48;100945.09;4147895;28;20418;-59
2023/08/24 03:28:15;;;;;;;;;;;;;;;24.67;55.51;100947.78;4147128;28;20421;-58
2023/08/24 03:30:16;;;;;;;;;;;;;;;24.67;55.61;100946.94;4148026;28;19940;-58
2023/08/24 03:32:18;;;;;;;;;;;;;;;24.67;55.41;100946.94;4148081;28;19957;-58
2023/08/24 03:34:20;;;;;;;;;;;;;;;24.66;55.50;100935.31;4147920;28;19999;-58
2023/08/24 03:36:22;;;;;;;;;;;;;;;24.67;55.53;100938.88;4147902;28;19931;-58
2023/08/24 03:38:23;;;;;;;;;;;;;;;24.65;55.56;100930.06;4147228;28;19948;-58
2023/08/24 03:40:25;;;;;;;;;;;;;;;24.66;55.57;100937.19;4146558;28;19926;-58
2023/08/24 03:42:26;;;;;;;;;;;;;;;24.65;55.63;100928.22;4147855;28;19932;-59
2023/08/24 03:44:28;;;;;;;;;;;;;;;24.67;55.79;100925.44;4148036;28;19949;-58
2023/08/24 03:46:29;;;;;;;;;;;;;;;24.65;55.61;100922.84;4147868;28;19940;-59
2023/08/24 03:48:32;;;;;;;;;;;;;;;24.64;55.60;100923.84;4146868;28;19976;-59
2023/08/24 03:50:33;;;;;;;;;;;;;;;24.65;55.73;100932.75;4147521;28;19937;-58
2023/08/24 03:52:35;;;;;;;;;;;;;;;24.65;55.57;100930.06;4147936;28;19925;-59
2023/08/24 03:54:36;;;;;;;;;;;;;;;24.64;55.75;100925.66;4147900;28;19925;-58
2023/08/24 03:56:39;;;;;;;;;;;;;;;24.64;55.74;100922.97;4147437;28;20307;-58
2023/08/24 03:58:40;;;;;;;;;;;;;;;24.64;55.88;100920.28;4146783;28;19925;-59
2023/08/24 04:00:42;;;;;;;;;;;;;;;24.64;55.58;100928.38;4147723;28;19947;-58
2023/08/24 04:02:44;;;;;;;;;;;;;;;24.63;55.47;100922.16;4147891;28;19940;-59
2023/08/24 04:04:46;;;;;;;;;;;;;;;24.63;55.58;100921.28;4146422;28;19933;-58
2023/08/24 04:06:52;;;;;;;;;;;;;;;24.62;55.94;100923.13;4147660;28;19929;-58
2023/08/24 04:08:54;;;;;;;;;;;;;;;24.63;55.68;100923.97;4146457;28;20024;-58
2023/08/24 04:10:55;;;;;;;;;;;;;;;24.62;55.53;100919.56;4147530;28;19925;-58
2023/08/24 04:12:57;;;;;;;;;;;;;;;24.62;55.54;100925.81;4147256;28;20387;-59
2023/08/24 04:14:59;;;;;;;;;;;;;;;24.62;55.88;100924.97;4147749;28;19926;-59
2023/08/24 04:17:00;;;;;;;;;;;;;;;24.62;55.56;100930.34;4147468;28;19937;-58
2023/08/24 04:19:06;;;;;;;;;;;;;;;24.61;55.82;100924.13;4146481;28;19925;-58
2023/08/24 04:21:08;;;;;;;;;;;;;;;24.61;55.59;100917.91;4147472;28;19997;-58
2023/08/24 04:23:10;;;;;;;;;;;;;;;24.61;55.86;100918.75;4147482;28;20012;-58
2023/08/24 04:25:11;;;;;;;;;;;;;;;24.61;55.61;100920.59;4147175;28;20400;-59
2023/08/24 04:27:13;;;;;;;;;;;;;;;24.61;55.61;100917.91;4147450;28;19932;-59
2023/08/24 04:29:14;;;;;;;;;;;;;;;24.60;55.56;100918.88;4145273;28;19936;-59
2023/08/24 04:31:21;;;;;;;;;;;;;;;24.59;55.73;100915.34;4147398;28;20013;-59
2023/08/24 04:33:27;;;;;;;;;;;;;;;24.59;55.74;100909.97;4147372;28;19948;-58
2023/08/24 04:35:29;;;;;;;;;;;;;;;24.59;55.62;100914.50;4147571;28;20064;-58
2023/08/24 04:37:30;;;;;;;;;;;;;;;24.59;55.64;100907.28;4147612;28;20012;-58
2023/08/24 04:39:32;;;;;;;;;;;;;;;24.58;55.71;100902.88;4145983;28;19930;-58
2023/08/24 04:41:34;;;;;;;;;;;;;;;24.56;55.68;100897.66;4147529;28;19992;-58
2023/08/24 04:43:40;;;;;;;;;;;;;;;24.57;55.70;100890.44;4147323;28;19926;-58
2023/08/24 04:45:48;;;;;;;;;;;;;;;24.58;55.63;100899.34;4146238;28;20028;-58
2023/08/24 04:47:49;;;;;;;;;;;;;;;24.58;55.71;100888.59;4147349;28;19969;-58
2023/08/24 04:49:51;;;;;;;;;;;;;;;24.56;55.60;100881.50;4146233;28;19980;-58
2023/08/24 04:51:53;;;;;;;;;;;;;;;24.56;55.61;100886.91;4147376;28;19988;-58
2023/08/24 04:53:54;;;;;;;;;;;;;;;24.56;56.08;100886.91;4147008;28;19937;-59
2023/08/24 04:56:01;;;;;;;;;;;;;;;24.56;55.66;100878.81;4147103;28;19926;-58
2023/08/24 04:58:02;;;;;;;;;;;;;;;24.56;55.73;100878.81;4146609;28;19941;-59
2023/08/24 05:00:05;;;;;;;;;;;;;;;24.56;55.63;100878.00;4146889;28;19933;-59
2023/08/24 05:02:07;;;;;;;;;;;;;;;24.55;55.82;100874.44;4147379;28;20042;-58
2023/08/24 05:04:09;;;;;;;;;;;;;;;24.54;55.92;100882.66;4146005;28;19941;-58
2023/08/24 05:06:10;;;;;;;;;;;;;;;24.55;56.04;100884.34;4147256;28;19968;-58
2023/08/24 05:08:12;;;;;;;;;;;;;;;24.56;55.71;100883.38;4145993;28;19964;-58
2023/08/24 05:10:18;;;;;;;;;;;;;;;24.55;55.79;100885.19;4147096;28;19925;-58
2023/08/24 05:12:20;;;;;;;;;;;;;;;24.56;55.66;100891.44;4146831;28;19936;-58
2023/08/24 05:14:21;;;;;;;;;;;;;;;24.55;56.08;100884.34;4146929;28;19968;-59
2023/08/24 05:16:23;;;;;;;;;;;;;;;24.54;55.76;100888.88;4147380;28;19933;-59
2023/08/24 05:18:24;;;;;;;;;;;;;;;24.55;55.59;100892.41;4146389;28;19933;-58
2023/08/24 05:20:31;;;;;;;;;;;;;;;24.55;55.74;100897.81;4146920;28;19932;-58
2023/08/24 05:22:32;;;;;;;;;;;;;;;24.54;55.64;100896.94;4146841;28;19925;-59
2023/08/24 05:24:34;;;;;;;;;;;;;;;24.54;55.95;100896.09;4147108;28;19963;-59
2023/08/24 05:26:35;;;;;;;;;;;;;;;24.54;55.86;100898.78;4147175;28;19929;-59
2023/08/24 05:28:37;;;;;;;;;;;;;;;24.54;55.56;100899.63;4146995;28;19979;-59
2023/08/24 05:30:38;;;;;;;;;;;;;;;24.55;55.97;100895.94;4149742;28;19925;-59
2023/08/24 05:32:40;;;;;;;;;;;;;;;24.54;55.61;100888.88;4149955;28;19967;-58
2023/08/24 05:34:42;;;;;;;;;;;;;;;24.55;55.76;100887.88;4149733;28;19926;-58
2023/08/24 05:36:43;;;;;;;;;;;;;;;24.55;55.74;100897.81;4149670;28;19926;-58
2023/08/24 05:38:46;;;;;;;;;;;;;;;24.56;55.54;100896.81;4148573;28;20088;-58
2023/08/24 05:41:06;;;;;;;;;;;;;;;24.56;55.83;100894.13;4149856;28;19926;-59
2023/08/24 05:43:08;;;;;;;;;;;;;;;24.56;55.89;100894.13;4149722;28;19925;-59
2023/08/24 05:45:09;;;;;;;;;;;;;;;24.56;55.85;100883.38;4149640;28;19933;-58
2023/08/24 05:47:11;;;;;;;;;;;;;;;24.57;55.55;100879.69;4149623;28;20384;-59
2023/08/24 05:49:12;;;;;;;;;;;;;;;24.57;55.53;100874.31;4148599;28;19932;-59
2023/08/24 05:51:14;;;;;;;;;;;;;;;24.56;55.48;100873.44;4149776;28;19931;-58
2023/08/24 05:53:15;;;;;;;;;;;;;;;24.57;55.55;100868.94;4149436;28;20287;-59
2023/08/24 05:55:17;;;;;;;;;;;;;;;24.57;55.69;100863.56;4149588;28;20458;-59
2023/08/24 05:57:19;;;;;;;;;;;;;;;24.59;55.50;100844.59;4149507;28;19926;-59
2023/08/24 05:59:21;;;;;;;;;;;;;;;24.47;55.63;100825.06;4148561;28;20024;-59
2023/08/24 06:01:22;;;;;;;;;;;;;;;24.59;55.44;100841.91;4149550;28;19935;-59
2023/08/24 06:03:24;;;;;;;;;;;;;;;24.59;55.61;100852.66;4149342;28;19926;-59
2023/08/24 06:05:26;;;;;;;;;;;;;;;24.59;55.42;100864.25;4149488;28;19952;-59
2023/08/24 06:07:28;;;;;;;;;;;;;;;24.59;55.80;100861.56;4149157;28;19926;-59
2023/08/24 06:09:29;;;;;;;;;;;;;;;24.59;55.40;100866.94;4148464;28;19933;-59
2023/08/24 06:11:32;;;;;;;;;;;;;;;24.60;55.72;100879.38;4149215;28;20327;-59
2023/08/24 06:13:33;;;;;;;;;;;;;;;24.60;55.40;100870.50;4149147;28;19964;-59
2023/08/24 06:15:35;;;;;;;;;;;;;;;24.60;55.39;100867.81;4149297;28;19987;-59
2023/08/24 06:17:36;;;;;;;;;;;;;;;24.60;55.74;100875.88;4149175;28;20008;-59
2023/08/24 06:19:38;;;;;;;;;;;;;;;24.60;55.73;100870.50;4148252;28;19933;-59
2023/08/24 06:21:39;;;;;;;;;;;;;;;24.60;55.48;100867.81;4148829;28;19959;-59
2023/08/24 06:23:41;;;;;;;;;;;;;;;24.59;55.46;100874.16;4149164;28;20302;-59
2023/08/24 06:25:43;;;;;;;;;;;;;;;24.60;55.39;100879.38;4148951;28;20449;-59
2023/08/24 06:27:44;;;;;;;;;;;;;;;24.60;55.33;100884.78;4148930;28;19929;-59
2023/08/24 06:29:46;;;;;;;;;;;;;;;24.59;55.42;100885.75;4147916;28;19933;-59
2023/08/24 06:31:48;;;;;;;;;;;;;;;24.61;55.59;100885.63;4148967;28;20012;-58
2023/08/24 06:33:49;;;;;;;;;;;;;;;24.60;55.73;100882.06;4148917;28;19925;-58
2023/08/24 06:35:51;;;;;;;;;;;;;;;24.59;55.45;100880.38;4148471;28;19933;-59
2023/08/24 06:37:53;;;;;;;;;;;;;;;24.59;55.33;100869.63;4148670;28;19926;-59
2023/08/24 06:39:54;;;;;;;;;;;;;;;24.59;55.64;100864.25;4147894;28;19930;-58
2023/08/24 06:41:56;;;;;;;;;;;;;;;24.59;55.65;100864.25;4148724;28;19925;-59
2023/08/24 06:43:58;;;;;;;;;;;;;;;24.60;55.26;100871.31;4149011;28;19926;-57
2023/08/24 06:46:00;;;;;;;;;;;;;;;24.61;55.34;100869.50;4147685;28;20016;-59
2023/08/24 06:48:02;;;;;;;;;;;;;;;24.61;55.27;100870.34;4148917;28;20107;-59
2023/08/24 06:50:04;;;;;;;;;;;;;;;24.61;55.53;100864.97;4147582;28;19926;-59
2023/08/24 06:52:06;;;;;;;;;;;;;;;24.63;55.29;100864.81;4148540;28;19935;-59
2023/08/24 06:54:07;;;;;;;;;;;;;;;24.62;55.52;100865.78;4148658;28;20346;-59
2023/08/24 06:56:10;;;;;;;;;;;;;;;24.63;55.31;100868.38;4148734;28;20029;-59
2023/08/24 06:58:12;;;;;;;;;;;;;;;24.63;55.14;100867.50;4148829;28;19929;-59
2023/08/24 07:00:14;;;;;;;;;;;;;;;24.65;55.31;100869.03;4147769;28;20302;-59
2023/08/24 07:02:17;;;;;;;;;;;;;;;24.65;55.06;100860.16;4148536;28;19929;-59
2023/08/24 07:04:19;;;;;;;;;;;;;;;24.66;54.98;100862.72;4148355;28;20483;-59
2023/08/24 07:06:20;;;;;;;;;;;;;;;24.67;55.15;100858.19;4148432;28;20298;-59
2023/08/24 07:08:22;;;;;;;;;;;;;;;24.67;54.96;100860.88;4148180;28;19925;-59
2023/08/24 07:10:23;;;;;;;;;;;;;;;24.68;55.03;100868.81;4147576;28;19932;-58
2023/08/24 07:12:25;;;;;;;;;;;;;;;24.70;54.93;100871.34;4148246;28;19975;-59
2023/08/24 07:14:26;;;;;;;;;;;;;;;24.69;54.98;100866.94;4148336;28;20335;-59
2023/08/24 07:16:28;;;;;;;;;;;;;;;24.69;54.99;100865.13;4148331;28;20413;-59
2023/08/24 07:18:29;;;;;;;;;;;;;;;24.70;54.97;100855.22;4147404;28;19933;-59
2023/08/24 07:20:35;;;;;;;;;;;;;;;24.71;54.97;100852.38;4147885;28;20344;-59
2023/08/24 07:22:36;;;;;;;;;;;;;;;24.72;55.24;100859.44;4148267;28;20020;-59
2023/08/24 07:24:38;;;;;;;;;;;;;;;24.74;54.83;100850.38;4148168;28;20357;-58
2023/08/24 07:26:45;;;;;;;;;;;;;;;24.75;54.95;100847.53;4148183;28;19953;-58
2023/08/24 07:28:46;;;;;;;;;;;;;;;24.77;54.83;100847.44;4147325;28;19975;-58
2023/08/24 07:30:48;;;;;;;;;;;;;;;24.77;54.66;100839.34;4147989;28;19932;-58
2023/08/24 07:32:50;;;;;;;;;;;;;;;24.76;54.61;100832.28;4147985;28;19960;-58
2023/08/24 07:34:51;;;;;;;;;;;;;;;24.76;54.73;100830.41;4147745;28;19926;-58
2023/08/24 07:36:53;;;;;;;;;;;;;;;24.75;54.49;100826.03;4147869;28;20024;-58
2023/08/24 07:38:54;;;;;;;;;;;;;;;24.74;54.84;100824.34;4146919;28;20162;-58
2023/08/24 07:40:56;;;;;;;;;;;;;;;24.75;54.67;100834.09;4147769;28;20387;-58
2023/08/24 07:42:59;;;;;;;;;;;;;;;24.74;54.62;100829.75;4147817;28;20421;-58
2023/08/24 07:45:01;;;;;;;;;;;;;;;24.74;54.57;100834.25;4147841;28;19948;-59
2023/08/24 07:47:02;;;;;;;;;;;;;;;24.74;54.39;100832.44;4147707;28;19977;-58
2023/08/24 07:49:04;;;;;;;;;;;;;;;24.75;54.66;100820.66;4146747;28;20462;-58
2023/08/24 07:51:07;;;;;;;;;;;;;;;24.76;54.67;100813.44;4147206;28;20020;-59
2023/08/24 07:53:08;;;;;;;;;;;;;;;24.75;54.54;100820.66;4147962;28;20351;-58
2023/08/24 07:55:10;;;;;;;;;;;;;;;24.76;54.82;100814.28;4147644;28;19925;-58
2023/08/24 07:57:11;;;;;;;;;;;;;;;24.78;54.70;100801.53;4146413;28;19990;-58
2023/08/24 07:59:13;;;;;;;;;;;;;;;24.81;54.44;100805.78;4146756;28;19926;-59
2023/08/24 08:01:15;;;;;;;;;;;;;;;24.84;54.46;100803.66;4147702;28;20340;-58
2023/08/24 08:03:17;;;;;;;;;;;;;;;24.86;54.14;100798.97;4147433;28;19936;-58
2023/08/24 08:05:19;;;;;;;;;;;;;;;24.91;54.10;100803.94;4147696;28;20384;-56
2023/08/24 08:07:20;;;;;;;;;;;;;;;24.93;54.33;100801.91;4147582;28;19961;-59
2023/08/24 08:09:22;;;;;;;;;;;;;;;24.95;54.08;100818.78;4146706;28;20020;-58
2023/08/24 08:11:24;;;;;;;;;;;;;;;24.97;53.90;100838.31;4147784;28;19956;-58
2023/08/24 08:13:25;;;;;;;;;;;;;;;24.99;54.06;100854.31;4147325;28;20016;-58
2023/08/24 08:15:27;;;;;;;;;;;;;;;25.02;53.91;100864.78;4147439;28;19930;-58
2023/08/24 08:17:30;;;;;;;;;;;;;;;25.03;53.65;100869.16;4147382;28;20043;-58
2023/08/24 08:19:35;;;;;;;;;;;;;;;25.02;53.79;100860.25;4145401;28;19930;-58
2023/08/24 08:21:36;;;;;;;;;;;;;;;25.01;53.60;100858.53;4147518;28;20024;-58
2023/08/24 08:23:38;;;;;;;;;;;;;;;25.00;53.71;100850.63;4147548;28;19926;-58
2023/08/24 08:25:42;;;;;;;;;;;;;;;25.00;53.95;100843.38;4147529;28;19925;-58
2023/08/24 08:27:44;;;;;;;;;;;;;;;25.02;53.95;100844.09;4147253;28;20012;-58
2023/08/24 08:29:45;;;;;;;;;;;;;;;25.06;53.85;100843.81;4146365;28;19925;-58
2023/08/24 08:31:47;;;;;;;;;;;;;;;25.04;53.81;100839.44;4147214;28;19929;-58
2023/08/24 08:33:48;;;;;;;;;;;;;;;25.02;53.99;100841.41;4147301;28;19972;-58
2023/08/24 08:35:50;;;;;;;;;;;;;;;25.04;53.87;100852.03;4147339;28;20020;-59
2023/08/24 08:37:53;;;;;;;;;;;;;;;25.05;53.90;100851.03;4147459;28;20025;-58
2023/08/24 08:39:55;;;;;;;;;;;;;;;25.04;54.20;100860.97;4146289;28;19926;-58
2023/08/24 08:41:56;;;;;;;;;;;;;;;25.04;53.90;100863.66;4147577;28;19930;-58
2023/08/24 08:43:59;;;;;;;;;;;;;;;25.06;53.87;100859.97;4147339;28;19925;-58
2023/08/24 08:46:01;;;;;;;;;;;;;;;25.06;54.35;100863.50;4146924;28;19956;-58
2023/08/24 08:48:03;;;;;;;;;;;;;;;25.05;54.37;100864.47;4147115;28;19932;-58
2023/08/24 08:50:05;;;;;;;;;;;;;;;25.04;54.42;100869.03;4146486;28;20338;-57
2023/08/24 08:52:06;;;;;;;;;;;;;;;25.03;54.05;100867.31;4147246;28;19988;-55
2023/08/24 08:54:08;;;;;;;;;;;;;;;25.03;54.26;100864.63;4147452;28;19971;-58
2023/08/24 08:56:11;;;;;;;;;;;;;;;25.06;54.28;100866.19;4147332;28;19930;-58
2023/08/24 08:58:14;;;;;;;;;;;;;;;25.09;54.21;100868.56;4147155;28;20021;-58
2023/08/24 09:00:16;;;;;;;;;;;;;;;25.10;54.42;100870.28;4145968;28;19965;-58
2023/08/24 09:02:20;;;;;;;;;;;;;;;25.10;54.03;100882.88;4147422;28;20426;-57
2023/08/24 09:04:23;;;;;;;;;;;;;;;25.11;54.19;100892.66;4149178;28;19948;-57
2023/08/24 09:06:25;;;;;;;;;;;;;;;25.11;54.21;100888.13;4149112;28;20029;-57
2023/08/24 09:08:27;;;;;;;;;;;;;;;25.12;54.19;100867.44;4150100;28;19957;-58
2023/08/24 09:10:29;;;;;;;;;;;;;;;25.11;54.11;100847.75;4149180;28;19925;-58
2023/08/24 09:12:31;;;;;;;;;;;;;;;25.11;54.59;100833.47;4150255;28;19984;-57
2023/08/24 09:14:34;;;;;;;;;;;;;;;25.12;54.54;100824.41;4149831;28;20426;-58
2023/08/24 09:16:35;;;;;;;;;;;;;;;25.14;54.44;100820.56;4150250;28;19977;-58
2023/08/24 09:18:38;;;;;;;;;;;;;;;25.20;54.45;100811.03;4149992;28;19929;-58
2023/08/24 09:20:39;;;;;;;;;;;;;;;25.22;54.00;100805.50;4149113;28;20302;-58
2023/08/24 09:22:44;;;;;;;;;;;;;;;25.22;54.35;100800.13;4150169;28;19932;-58
2023/08/24 09:24:49;;;;;;;;;;;;;;;25.19;53.88;100804.81;4150064;28;19971;-58
2023/08/24 09:26:51;;;;;;;;;;;;;;;25.19;54.04;100823.66;4148811;28;19925;-58
2023/08/24 09:28:52;;;;;;;;;;;;;;;25.19;53.95;100828.19;4149822;28;19948;-59
2023/08/24 09:30:56;;;;;;;;;;;;;;;25.16;54.10;100850.84;4148844;28;19964;-57
2023/08/24 09:33:09;;;;;;;;;;;;;;;25.15;53.69;100857.25;4149894;28;19972;-57
2023/08/24 09:35:10;;;;;;;;;;;;;;;25.14;53.72;100854.69;4149985;28;19931;-58
2023/08/24 09:37:17;;;;;;;;;;;;;;;25.12;53.67;100865.59;4149977;28;19930;-57
2023/08/24 09:39:19;;;;;;;;;;;;;;;25.12;53.77;100870.16;4148774;28;19926;-60
2023/08/24 09:41:20;;;;;;;;;;;;;;;25.12;53.72;100889.81;4149867;28;20304;-59
2023/08/24 09:43:23;;;;;;;;;;;;;;;25.12;53.83;100887.13;4149666;28;19932;-59
2023/08/24 09:45:24;;;;;;;;;;;;;;;25.13;53.84;100887.97;4148246;28;19936;-59
2023/08/24 09:47:26;;;;;;;;;;;;;;;25.13;54.12;100879.88;4149590;28;19929;-59
2023/08/24 09:49:32;;;;;;;;;;;;;;;25.13;53.99;100878.06;4148602;28;19956;-58
2023/08/24 09:51:34;;;;;;;;;;;;;;;25.15;54.06;100883.28;4149660;28;19926;-58
2023/08/24 09:53:42;;;;;;;;;;;;;;;25.15;54.00;100905.69;4149830;28;19926;-59
2023/08/24 09:55:44;;;;;;;;;;;;;;;25.15;53.76;100918.28;4149485;28;19929;-59
2023/08/24 09:57:46;;;;;;;;;;;;;;;25.15;54.08;100911.06;4149753;28;19926;-59
2023/08/24 09:59:49;;;;;;;;;;;;;;;25.15;54.07;100905.69;4148100;28;20410;-58
2023/08/24 10:01:51;;;;;;;;;;;;;;;25.14;53.80;100903.13;4148245;28;19952;-58
2023/08/24 10:03:53;;;;;;;;;;;;;;;25.15;54.05;100907.50;4149591;28;19929;-58
2023/08/24 10:06:03;;;;;;;;;;;;;;;25.13;53.70;100902.28;4149672;28;20004;-58
2023/08/24 10:08:10;;;;;;;;;;;;;;;25.14;54.05;100912.06;4149201;28;19925;-57
2023/08/24 10:10:13;;;;;;;;;;;;;;;25.14;53.74;100916.56;4148485;28;19925;-57
2023/08/24 10:12:18;;;;;;;;;;;;;;;25.12;53.92;100908.66;4149163;28;20392;-58
2023/08/24 10:14:23;;;;;;;;;;;;;;;25.12;53.81;100900.59;4148528;28;19937;-58
2023/08/24 10:16:26;;;;;;;;;;;;;;;25.12;54.09;100887.13;4149208;28;19929;-59
2023/08/24 10:18:28;;;;;;;;;;;;;;;25.12;54.01;100868.28;4149167;28;19929;-59
2023/08/24 10:20:30;;;;;;;;;;;;;;;25.13;53.70;100859.22;4148316;28;19969;-59
2023/08/24 10:22:33;;;;;;;;;;;;;;;25.13;53.82;100855.66;4149306;28;20041;-59
2023/08/24 10:24:35;;;;;;;;;;;;;;;25.14;54.15;100860.06;4149125;28;19926;-59
2023/08/24 10:26:39;;;;;;;;;;;;;;;25.15;53.86;100853.69;4149130;28;19932;-59
2023/08/24 10:28:41;;;;;;;;;;;;;;;25.15;53.81;100865.31;4148564;28;20414;-60